Terminal Aerodrome Forecast
Issued by NWS

Home | Current Version | Previous Version | Text Only | Print | Product List | Glossary On
Versions: 1 2 3 4 5 6 7 8 9 10 11 12 13 14 15 16 17
000
FTAK31 PAJN 291100
TAFAYA
TAF
PAYA 291130Z 2912/3012 07005KT P6SM -SHRA BKN010 OVC020
     FM291500 09005KT P6SM -SHRA BKN020 OVC040
     FM291800 12006KT P6SM -SHRA SCT025 OVC050
     FM300000 14006KT P6SM VCSH OVC050
     FM300600 VRB03KT P6SM -SHRA SCT025 OVC050
     FM300900 00000KT P6SM -SHRA BKN025 OVC050
      AMD LTD TO CLD VIS AND WIND 3001/3010=

USA.gov is the U.S. government's official web portal to all federal, state and local government web resources and services.